sensor_id;sensor_type;location;lat;lon;timestamp;temperature;humidity
2226;DHT22;1119;48.288;8.726;2024-03-29T00:01:23;7.70;77.40
2226;DHT22;1119;48.288;8.726;2024-03-29T00:04:10;7.60;77.10
2226;DHT22;1119;48.288;8.726;2024-03-29T00:06:58;7.60;77.00
2226;DHT22;1119;48.288;8.726;2024-03-29T00:09:45;7.60;77.10
2226;DHT22;1119;48.288;8.726;2024-03-29T00:12:32;7.60;77.00
2226;DHT22;1119;48.288;8.726;2024-03-29T00:15:18;7.50;77.60
2226;DHT22;1119;48.288;8.726;2024-03-29T00:18:05;7.50;76.90
2226;DHT22;1119;48.288;8.726;2024-03-29T00:20:52;7.40;76.90
2226;DHT22;1119;48.288;8.726;2024-03-29T00:23:40;7.40;76.80
2226;DHT22;1119;48.288;8.726;2024-03-29T00:26:27;7.30;76.70
2226;DHT22;1119;48.288;8.726;2024-03-29T00:29:14;7.30;76.70
2226;DHT22;1119;48.288;8.726;2024-03-29T00:32:00;7.20;76.50
2226;DHT22;1119;48.288;8.726;2024-03-29T00:34:50;7.30;76.50
2226;DHT22;1119;48.288;8.726;2024-03-29T00:37:37;7.30;76.00
2226;DHT22;1119;48.288;8.726;2024-03-29T00:40:25;7.30;75.80
2226;DHT22;1119;48.288;8.726;2024-03-29T00:43:11;7.30;75.80
2226;DHT22;1119;48.288;8.726;2024-03-29T00:45:58;7.30;75.30
2226;DHT22;1119;48.288;8.726;2024-03-29T00:48:45;7.30;75.00
2226;DHT22;1119;48.288;8.726;2024-03-29T00:51:31;7.30;74.80
2226;DHT22;1119;48.288;8.726;2024-03-29T00:54:18;7.30;74.40
2226;DHT22;1119;48.288;8.726;2024-03-29T00:57:06;7.30;73.90
2226;DHT22;1119;48.288;8.726;2024-03-29T00:59:53;7.40;74.10
2226;DHT22;1119;48.288;8.726;2024-03-29T01:02:40;7.40;74.10
2226;DHT22;1119;48.288;8.726;2024-03-29T01:05:26;7.40;74.10
2226;DHT22;1119;48.288;8.726;2024-03-29T01:08:13;7.30;74.50
2226;DHT22;1119;48.288;8.726;2024-03-29T01:11:00;7.30;74.90
2226;DHT22;1119;48.288;8.726;2024-03-29T01:13:48;7.30;75.00
2226;DHT22;1119;48.288;8.726;2024-03-29T01:16:34;7.30;74.80
2226;DHT22;1119;48.288;8.726;2024-03-29T01:19:21;7.30;74.50
2226;DHT22;1119;48.288;8.726;2024-03-29T01:22:08;7.20;74.70
2226;DHT22;1119;48.288;8.726;2024-03-29T01:24:54;7.20;75.30
2226;DHT22;1119;48.288;8.726;2024-03-29T01:27:42;7.10;75.10
2226;DHT22;1119;48.288;8.726;2024-03-29T01:30:30;7.10;74.90
2226;DHT22;1119;48.288;8.726;2024-03-29T01:33:16;7.10;76.10
2226;DHT22;1119;48.288;8.726;2024-03-29T01:36:03;7.10;76.40
2226;DHT22;1119;48.288;8.726;2024-03-29T01:38:51;6.90;77.60
2226;DHT22;1119;48.288;8.726;2024-03-29T01:41:37;6.70;78.10
2226;DHT22;1119;48.288;8.726;2024-03-29T01:44:24;6.70;78.50
2226;DHT22;1119;48.288;8.726;2024-03-29T01:47:13;6.60;79.10
2226;DHT22;1119;48.288;8.726;2024-03-29T01:50:00;6.50;79.60
2226;DHT22;1119;48.288;8.726;2024-03-29T01:52:50;6.50;78.70
2226;DHT22;1119;48.288;8.726;2024-03-29T01:55:37;6.50;78.80
2226;DHT22;1119;48.288;8.726;2024-03-29T01:58:25;6.50;79.30
2226;DHT22;1119;48.288;8.726;2024-03-29T02:01:13;6.60;79.60
2226;DHT22;1119;48.288;8.726;2024-03-29T02:04:03;6.50;79.80
2226;DHT22;1119;48.288;8.726;2024-03-29T02:06:51;6.50;79.90
2226;DHT22;1119;48.288;8.726;2024-03-29T02:09:38;6.50;80.30
2226;DHT22;1119;48.288;8.726;2024-03-29T02:12:25;6.50;80.40
2226;DHT22;1119;48.288;8.726;2024-03-29T02:15:15;6.50;80.30
2226;DHT22;1119;48.288;8.726;2024-03-29T02:18:03;6.50;80.30
2226;DHT22;1119;48.288;8.726;2024-03-29T02:20:52;6.50;80.10
2226;DHT22;1119;48.288;8.726;2024-03-29T02:23:44;6.50;80.40
2226;DHT22;1119;48.288;8.726;2024-03-29T02:26:34;6.40;81.10
2226;DHT22;1119;48.288;8.726;2024-03-29T02:29:23;6.20;80.80
2226;DHT22;1119;48.288;8.726;2024-03-29T02:32:13;6.20;80.90
2226;DHT22;1119;48.288;8.726;2024-03-29T02:35:01;6.20;80.30
2226;DHT22;1119;48.288;8.726;2024-03-29T02:37:48;6.20;79.80
2226;DHT22;1119;48.288;8.726;2024-03-29T02:40:36;6.30;79.70
2226;DHT22;1119;48.288;8.726;2024-03-29T02:43:25;6.20;79.40
2226;DHT22;1119;48.288;8.726;2024-03-29T02:46:12;6.20;79.10
2226;DHT22;1119;48.288;8.726;2024-03-29T02:49:00;6.20;79.10
2226;DHT22;1119;48.288;8.726;2024-03-29T02:51:46;6.20;79.20
2226;DHT22;1119;48.288;8.726;2024-03-29T02:54:37;6.20;78.70
2226;DHT22;1119;48.288;8.726;2024-03-29T02:57:23;6.20;79.10
2226;DHT22;1119;48.288;8.726;2024-03-29T03:00:14;6.10;79.30
2226;DHT22;1119;48.288;8.726;2024-03-29T03:03:01;6.10;79.50
2226;DHT22;1119;48.288;8.726;2024-03-29T03:05:48;6.10;79.80
2226;DHT22;1119;48.288;8.726;2024-03-29T03:08:35;6.00;79.70
2226;DHT22;1119;48.288;8.726;2024-03-29T03:11:40;6.10;79.70
2226;DHT22;1119;48.288;8.726;2024-03-29T03:14:28;6.10;79.80
2226;DHT22;1119;48.288;8.726;2024-03-29T03:17:16;6.20;79.80
2226;DHT22;1119;48.288;8.726;2024-03-29T03:20:05;6.20;80.00
2226;DHT22;1119;48.288;8.726;2024-03-29T03:22:52;6.20;80.40
2226;DHT22;1119;48.288;8.726;2024-03-29T03:25:42;6.30;81.30
2226;DHT22;1119;48.288;8.726;2024-03-29T03:28:28;6.30;81.80
2226;DHT22;1119;48.288;8.726;2024-03-29T03:31:16;6.20;81.90
2226;DHT22;1119;48.288;8.726;2024-03-29T03:34:04;6.20;82.20
2226;DHT22;1119;48.288;8.726;2024-03-29T03:36:51;6.10;82.60
2226;DHT22;1119;48.288;8.726;2024-03-29T03:39:38;6.10;82.70
2226;DHT22;1119;48.288;8.726;2024-03-29T03:42:26;6.10;82.50
2226;DHT22;1119;48.288;8.726;2024-03-29T03:45:12;6.00;82.90
2226;DHT22;1119;48.288;8.726;2024-03-29T03:48:00;5.90;83.00
2226;DHT22;1119;48.288;8.726;2024-03-29T03:50:49;5.90;83.80
2226;DHT22;1119;48.288;8.726;2024-03-29T03:53:36;5.90;83.10
2226;DHT22;1119;48.288;8.726;2024-03-29T03:56:24;5.90;83.20
2226;DHT22;1119;48.288;8.726;2024-03-29T03:59:11;5.90;83.10
2226;DHT22;1119;48.288;8.726;2024-03-29T04:01:58;6.00;82.70
2226;DHT22;1119;48.288;8.726;2024-03-29T04:04:47;6.00;82.30
2226;DHT22;1119;48.288;8.726;2024-03-29T04:07:36;6.00;82.30
2226;DHT22;1119;48.288;8.726;2024-03-29T04:10:22;6.10;83.30
2226;DHT22;1119;48.288;8.726;2024-03-29T04:13:10;6.10;83.70
2226;DHT22;1119;48.288;8.726;2024-03-29T04:16:01;6.10;84.10
2226;DHT22;1119;48.288;8.726;2024-03-29T04:18:49;6.10;84.50
2226;DHT22;1119;48.288;8.726;2024-03-29T04:21:36;6.00;84.40
2226;DHT22;1119;48.288;8.726;2024-03-29T04:24:25;6.10;84.60
2226;DHT22;1119;48.288;8.726;2024-03-29T04:27:11;6.00;84.10
2226;DHT22;1119;48.288;8.726;2024-03-29T04:29:59;6.10;83.70
2226;DHT22;1119;48.288;8.726;2024-03-29T04:32:46;6.00;84.70
2226;DHT22;1119;48.288;8.726;2024-03-29T04:35:33;6.10;84.20
2226;DHT22;1119;48.288;8.726;2024-03-29T04:38:20;6.10;84.30
2226;DHT22;1119;48.288;8.726;2024-03-29T04:41:09;6.20;84.30
2226;DHT22;1119;48.288;8.726;2024-03-29T04:43:57;6.20;84.30
2226;DHT22;1119;48.288;8.726;2024-03-29T04:46:44;6.30;83.50
2226;DHT22;1119;48.288;8.726;2024-03-29T04:49:32;6.30;82.90
2226;DHT22;1119;48.288;8.726;2024-03-29T04:52:22;6.40;82.10
2226;DHT22;1119;48.288;8.726;2024-03-29T04:55:12;6.50;81.90
2226;DHT22;1119;48.288;8.726;2024-03-29T04:58:01;6.60;82.10
2226;DHT22;1119;48.288;8.726;2024-03-29T05:00:50;6.70;82.60
2226;DHT22;1119;48.288;8.726;2024-03-29T05:03:38;6.60;82.30
2226;DHT22;1119;48.288;8.726;2024-03-29T05:06:25;6.60;81.70
2226;DHT22;1119;48.288;8.726;2024-03-29T05:09:13;6.70;81.20
2226;DHT22;1119;48.288;8.726;2024-03-29T05:12:01;6.70;81.90
2226;DHT22;1119;48.288;8.726;2024-03-29T05:14:50;6.70;82.80
2226;DHT22;1119;48.288;8.726;2024-03-29T05:17:37;6.70;83.20
2226;DHT22;1119;48.288;8.726;2024-03-29T05:20:27;6.70;82.90
2226;DHT22;1119;48.288;8.726;2024-03-29T05:23:15;6.70;82.70
2226;DHT22;1119;48.288;8.726;2024-03-29T05:26:03;6.70;82.30
2226;DHT22;1119;48.288;8.726;2024-03-29T05:28:51;6.70;81.90
2226;DHT22;1119;48.288;8.726;2024-03-29T05:31:41;6.70;81.50
2226;DHT22;1119;48.288;8.726;2024-03-29T05:34:29;6.70;81.00
2226;DHT22;1119;48.288;8.726;2024-03-29T05:37:17;6.70;80.50
2226;DHT22;1119;48.288;8.726;2024-03-29T05:40:05;6.80;79.70
2226;DHT22;1119;48.288;8.726;2024-03-29T05:42:54;6.90;79.00
2226;DHT22;1119;48.288;8.726;2024-03-29T05:45:42;6.90;78.20
2226;DHT22;1119;48.288;8.726;2024-03-29T05:48:31;7.10;76.60
2226;DHT22;1119;48.288;8.726;2024-03-29T05:51:20;7.20;75.00
2226;DHT22;1119;48.288;8.726;2024-03-29T05:54:07;7.40;74.60
2226;DHT22;1119;48.288;8.726;2024-03-29T05:56:55;7.50;73.90
2226;DHT22;1119;48.288;8.726;2024-03-29T05:59:43;7.60;73.40
2226;DHT22;1119;48.288;8.726;2024-03-29T06:02:31;7.70;73.60
2226;DHT22;1119;48.288;8.726;2024-03-29T06:05:20;7.90;73.00
2226;DHT22;1119;48.288;8.726;2024-03-29T06:08:08;7.90;71.80
2226;DHT22;1119;48.288;8.726;2024-03-29T06:10:55;8.00;71.70
2226;DHT22;1119;48.288;8.726;2024-03-29T06:13:45;8.20;69.60
2226;DHT22;1119;48.288;8.726;2024-03-29T06:16:50;8.30;69.00
2226;DHT22;1119;48.288;8.726;2024-03-29T06:20:01;8.50;68.20
2226;DHT22;1119;48.288;8.726;2024-03-29T06:22:51;8.70;66.20
2226;DHT22;1119;48.288;8.726;2024-03-29T06:25:39;8.80;65.90
2226;DHT22;1119;48.288;8.726;2024-03-29T06:28:26;8.90;65.70
2226;DHT22;1119;48.288;8.726;2024-03-29T06:31:14;8.90;66.60
2226;DHT22;1119;48.288;8.726;2024-03-29T06:34:02;9.00;67.50
2226;DHT22;1119;48.288;8.726;2024-03-29T06:36:49;9.00;67.50
2226;DHT22;1119;48.288;8.726;2024-03-29T06:39:38;9.00;68.50
2226;DHT22;1119;48.288;8.726;2024-03-29T06:42:27;9.10;67.50
2226;DHT22;1119;48.288;8.726;2024-03-29T06:45:18;9.00;68.40
2226;DHT22;1119;48.288;8.726;2024-03-29T06:48:06;9.10;68.50
2226;DHT22;1119;48.288;8.726;2024-03-29T06:50:54;9.10;69.90
2226;DHT22;1119;48.288;8.726;2024-03-29T06:53:41;9.00;69.80
2226;DHT22;1119;48.288;8.726;2024-03-29T06:56:31;9.10;70.20
2226;DHT22;1119;48.288;8.726;2024-03-29T06:59:18;9.10;71.60
2226;DHT22;1119;48.288;8.726;2024-03-29T07:02:06;9.20;72.10
2226;DHT22;1119;48.288;8.726;2024-03-29T07:04:54;9.30;72.20
2226;DHT22;1119;48.288;8.726;2024-03-29T07:07:42;9.30;72.20
2226;DHT22;1119;48.288;8.726;2024-03-29T07:10:32;9.30;73.60
2226;DHT22;1119;48.288;8.726;2024-03-29T07:13:21;9.40;73.80
2226;DHT22;1119;48.288;8.726;2024-03-29T07:16:09;9.40;75.50
2226;DHT22;1119;48.288;8.726;2024-03-29T07:18:56;9.50;74.80
2226;DHT22;1119;48.288;8.726;2024-03-29T07:21:46;9.70;76.60
2226;DHT22;1119;48.288;8.726;2024-03-29T07:24:33;9.80;78.70
2226;DHT22;1119;48.288;8.726;2024-03-29T07:27:21;9.80;79.30
2226;DHT22;1119;48.288;8.726;2024-03-29T07:30:12;9.90;80.60
2226;DHT22;1119;48.288;8.726;2024-03-29T07:33:01;10.00;79.10
2226;DHT22;1119;48.288;8.726;2024-03-29T07:35:49;10.00;78.50
2226;DHT22;1119;48.288;8.726;2024-03-29T07:38:37;10.00;77.80
2226;DHT22;1119;48.288;8.726;2024-03-29T07:41:26;10.00;78.00
2226;DHT22;1119;48.288;8.726;2024-03-29T07:44:13;10.10;79.40
2226;DHT22;1119;48.288;8.726;2024-03-29T07:47:03;10.10;80.00
2226;DHT22;1119;48.288;8.726;2024-03-29T07:49:51;10.10;80.80
2226;DHT22;1119;48.288;8.726;2024-03-29T07:52:38;10.10;83.20
2226;DHT22;1119;48.288;8.726;2024-03-29T07:55:26;9.90;85.90
2226;DHT22;1119;48.288;8.726;2024-03-29T07:58:14;9.70;85.60
2226;DHT22;1119;48.288;8.726;2024-03-29T08:01:03;9.50;85.60
2226;DHT22;1119;48.288;8.726;2024-03-29T08:03:53;9.40;86.10
2226;DHT22;1119;48.288;8.726;2024-03-29T08:06:41;9.20;86.70
2226;DHT22;1119;48.288;8.726;2024-03-29T08:09:28;9.20;87.80
2226;DHT22;1119;48.288;8.726;2024-03-29T08:12:17;9.10;87.50
2226;DHT22;1119;48.288;8.726;2024-03-29T08:15:05;9.10;88.10
2226;DHT22;1119;48.288;8.726;2024-03-29T08:17:54;9.10;89.60
2226;DHT22;1119;48.288;8.726;2024-03-29T08:20:43;9.20;87.30
2226;DHT22;1119;48.288;8.726;2024-03-29T08:23:31;9.20;86.20
2226;DHT22;1119;48.288;8.726;2024-03-29T08:26:19;9.20;85.60
2226;DHT22;1119;48.288;8.726;2024-03-29T08:29:07;9.30;85.30
2226;DHT22;1119;48.288;8.726;2024-03-29T08:31:55;9.40;86.70
2226;DHT22;1119;48.288;8.726;2024-03-29T08:34:46;9.40;88.70
2226;DHT22;1119;48.288;8.726;2024-03-29T08:37:35;9.40;89.40
2226;DHT22;1119;48.288;8.726;2024-03-29T08:40:23;9.60;89.90
2226;DHT22;1119;48.288;8.726;2024-03-29T08:43:11;9.70;89.20
2226;DHT22;1119;48.288;8.726;2024-03-29T08:45:58;9.80;88.70
2226;DHT22;1119;48.288;8.726;2024-03-29T08:48:47;9.90;88.80
2226;DHT22;1119;48.288;8.726;2024-03-29T08:51:34;10.10;88.10
2226;DHT22;1119;48.288;8.726;2024-03-29T08:54:23;10.10;86.40
2226;DHT22;1119;48.288;8.726;2024-03-29T08:57:11;10.20;85.20
2226;DHT22;1119;48.288;8.726;2024-03-29T08:59:59;10.20;82.90
2226;DHT22;1119;48.288;8.726;2024-03-29T09:02:46;10.30;81.90
2226;DHT22;1119;48.288;8.726;2024-03-29T09:05:34;10.20;81.00
2226;DHT22;1119;48.288;8.726;2024-03-29T09:08:22;10.30;81.60
2226;DHT22;1119;48.288;8.726;2024-03-29T09:11:11;10.20;79.50
2226;DHT22;1119;48.288;8.726;2024-03-29T09:13:59;10.20;79.00
2226;DHT22;1119;48.288;8.726;2024-03-29T09:16:48;10.30;76.70
2226;DHT22;1119;48.288;8.726;2024-03-29T09:19:36;10.30;76.60
2226;DHT22;1119;48.288;8.726;2024-03-29T09:22:24;10.40;77.80
2226;DHT22;1119;48.288;8.726;2024-03-29T09:25:11;10.60;78.30
2226;DHT22;1119;48.288;8.726;2024-03-29T09:28:02;10.90;78.70
2226;DHT22;1119;48.288;8.726;2024-03-29T09:30:50;11.10;77.90
2226;DHT22;1119;48.288;8.726;2024-03-29T09:33:44;11.30;77.20
2226;DHT22;1119;48.288;8.726;2024-03-29T09:36:33;11.60;76.70
2226;DHT22;1119;48.288;8.726;2024-03-29T09:39:21;11.80;75.80
2226;DHT22;1119;48.288;8.726;2024-03-29T09:42:11;12.10;75.00
2226;DHT22;1119;48.288;8.726;2024-03-29T09:45:05;12.30;75.00
2226;DHT22;1119;48.288;8.726;2024-03-29T09:47:53;12.70;74.00
2226;DHT22;1119;48.288;8.726;2024-03-29T09:50:43;12.90;73.10
2226;DHT22;1119;48.288;8.726;2024-03-29T09:53:33;13.10;74.40
2226;DHT22;1119;48.288;8.726;2024-03-29T09:56:22;13.20;73.90
2226;DHT22;1119;48.288;8.726;2024-03-29T09:59:12;13.30;72.90
2226;DHT22;1119;48.288;8.726;2024-03-29T10:02:08;13.40;73.30
2226;DHT22;1119;48.288;8.726;2024-03-29T10:05:01;13.60;75.00
2226;DHT22;1119;48.288;8.726;2024-03-29T10:07:52;13.80;76.00
2226;DHT22;1119;48.288;8.726;2024-03-29T10:10:41;14.00;74.80
2226;DHT22;1119;48.288;8.726;2024-03-29T10:13:29;14.30;74.00
2226;DHT22;1119;48.288;8.726;2024-03-29T10:16:19;14.50;72.90
2226;DHT22;1119;48.288;8.726;2024-03-29T10:19:11;14.70;73.90
2226;DHT22;1119;48.288;8.726;2024-03-29T10:22:05;14.90;72.60
2226;DHT22;1119;48.288;8.726;2024-03-29T10:24:53;15.00;77.00
2226;DHT22;1119;48.288;8.726;2024-03-29T10:27:41;15.20;74.40
2226;DHT22;1119;48.288;8.726;2024-03-29T10:30:29;15.40;77.20
2226;DHT22;1119;48.288;8.726;2024-03-29T10:33:18;15.40;75.70
2226;DHT22;1119;48.288;8.726;2024-03-29T10:36:07;15.40;75.40
2226;DHT22;1119;48.288;8.726;2024-03-29T10:38:58;15.30;75.70
2226;DHT22;1119;48.288;8.726;2024-03-29T10:41:47;15.40;74.00
2226;DHT22;1119;48.288;8.726;2024-03-29T10:44:35;15.40;72.90
2226;DHT22;1119;48.288;8.726;2024-03-29T10:47:24;15.40;73.80
2226;DHT22;1119;48.288;8.726;2024-03-29T10:50:13;15.60;73.10
2226;DHT22;1119;48.288;8.726;2024-03-29T10:53:03;15.60;71.30
2226;DHT22;1119;48.288;8.726;2024-03-29T10:55:53;15.70;71.20
2226;DHT22;1119;48.288;8.726;2024-03-29T10:58:46;15.70;70.90
2226;DHT22;1119;48.288;8.726;2024-03-29T11:01:39;15.70;73.10
2226;DHT22;1119;48.288;8.726;2024-03-29T11:04:31;15.80;73.40
2226;DHT22;1119;48.288;8.726;2024-03-29T11:07:21;15.80;72.80
2226;DHT22;1119;48.288;8.726;2024-03-29T11:10:15;15.90;71.40
2226;DHT22;1119;48.288;8.726;2024-03-29T11:13:11;15.90;71.30
2226;DHT22;1119;48.288;8.726;2024-03-29T11:16:02;15.90;71.70
2226;DHT22;1119;48.288;8.726;2024-03-29T11:18:51;16.00;70.00
2226;DHT22;1119;48.288;8.726;2024-03-29T11:21:40;16.00;70.90
2226;DHT22;1119;48.288;8.726;2024-03-29T11:24:29;15.90;72.50
2226;DHT22;1119;48.288;8.726;2024-03-29T11:27:22;15.80;72.40
2226;DHT22;1119;48.288;8.726;2024-03-29T11:30:10;15.80;71.70
2226;DHT22;1119;48.288;8.726;2024-03-29T11:32:59;15.90;70.80
2226;DHT22;1119;48.288;8.726;2024-03-29T11:35:47;16.10;72.50
2226;DHT22;1119;48.288;8.726;2024-03-29T11:38:36;16.30;70.80
2226;DHT22;1119;48.288;8.726;2024-03-29T11:41:24;16.30;67.10
2226;DHT22;1119;48.288;8.726;2024-03-29T11:44:14;16.40;67.00
2226;DHT22;1119;48.288;8.726;2024-03-29T11:47:04;16.50;67.90
2226;DHT22;1119;48.288;8.726;2024-03-29T11:49:56;16.70;66.50
2226;DHT22;1119;48.288;8.726;2024-03-29T11:52:45;16.80;65.30
2226;DHT22;1119;48.288;8.726;2024-03-29T11:55:32;16.90;61.70
2226;DHT22;1119;48.288;8.726;2024-03-29T11:58:24;16.60;60.40
2226;DHT22;1119;48.288;8.726;2024-03-29T12:01:13;16.60;61.80
2226;DHT22;1119;48.288;8.726;2024-03-29T12:04:02;16.60;65.30
2226;DHT22;1119;48.288;8.726;2024-03-29T12:06:50;16.60;69.10
2226;DHT22;1119;48.288;8.726;2024-03-29T12:09:37;16.50;72.10
2226;DHT22;1119;48.288;8.726;2024-03-29T12:12:25;16.60;71.90
2226;DHT22;1119;48.288;8.726;2024-03-29T12:15:12;16.70;72.20
2226;DHT22;1119;48.288;8.726;2024-03-29T12:18:03;16.60;72.50
2226;DHT22;1119;48.288;8.726;2024-03-29T12:20:52;16.70;72.60
2226;DHT22;1119;48.288;8.726;2024-03-29T12:23:47;16.50;73.40
2226;DHT22;1119;48.288;8.726;2024-03-29T12:26:35;16.30;74.80
2226;DHT22;1119;48.288;8.726;2024-03-29T12:29:24;16.30;73.90
2226;DHT22;1119;48.288;8.726;2024-03-29T12:32:12;16.50;74.30
2226;DHT22;1119;48.288;8.726;2024-03-29T12:35:08;16.70;71.00
2226;DHT22;1119;48.288;8.726;2024-03-29T12:37:58;16.70;68.20
2226;DHT22;1119;48.288;8.726;2024-03-29T12:40:48;16.70;68.50
2226;DHT22;1119;48.288;8.726;2024-03-29T12:43:36;16.80;66.50
2226;DHT22;1119;48.288;8.726;2024-03-29T12:46:25;16.90;63.80
2226;DHT22;1119;48.288;8.726;2024-03-29T12:49:12;17.00;62.40
2226;DHT22;1119;48.288;8.726;2024-03-29T12:52:05;17.20;64.90
2226;DHT22;1119;48.288;8.726;2024-03-29T12:54:53;17.40;68.20
2226;DHT22;1119;48.288;8.726;2024-03-29T12:57:40;17.40;68.60
2226;DHT22;1119;48.288;8.726;2024-03-29T13:00:30;17.30;68.10
2226;DHT22;1119;48.288;8.726;2024-03-29T13:03:18;17.20;69.00
2226;DHT22;1119;48.288;8.726;2024-03-29T13:06:06;17.30;69.60
2226;DHT22;1119;48.288;8.726;2024-03-29T13:08:55;17.30;70.70
2226;DHT22;1119;48.288;8.726;2024-03-29T13:11:43;17.40;71.30
2226;DHT22;1119;48.288;8.726;2024-03-29T13:14:31;17.50;69.50
2226;DHT22;1119;48.288;8.726;2024-03-29T13:17:18;17.50;69.80
2226;DHT22;1119;48.288;8.726;2024-03-29T13:20:07;17.60;69.20
2226;DHT22;1119;48.288;8.726;2024-03-29T13:22:55;17.50;69.00
2226;DHT22;1119;48.288;8.726;2024-03-29T13:25:45;17.30;67.80
2226;DHT22;1119;48.288;8.726;2024-03-29T13:28:33;17.00;68.10
2226;DHT22;1119;48.288;8.726;2024-03-29T13:31:23;17.00;70.20
2226;DHT22;1119;48.288;8.726;2024-03-29T13:34:14;17.20;69.00
2226;DHT22;1119;48.288;8.726;2024-03-29T13:37:03;17.10;67.30
2226;DHT22;1119;48.288;8.726;2024-03-29T13:39:51;17.20;66.20
2226;DHT22;1119;48.288;8.726;2024-03-29T13:42:40;17.20;67.00
2226;DHT22;1119;48.288;8.726;2024-03-29T13:45:28;17.30;66.20
2226;DHT22;1119;48.288;8.726;2024-03-29T13:48:16;17.40;66.50
2226;DHT22;1119;48.288;8.726;2024-03-29T13:51:04;17.30;64.10
2226;DHT22;1119;48.288;8.726;2024-03-29T13:53:53;17.20;63.70
2226;DHT22;1119;48.288;8.726;2024-03-29T13:56:41;17.00;64.70
2226;DHT22;1119;48.288;8.726;2024-03-29T13:59:30;16.90;63.50
2226;DHT22;1119;48.288;8.726;2024-03-29T14:02:18;16.80;63.80
2226;DHT22;1119;48.288;8.726;2024-03-29T14:05:06;16.70;65.00
2226;DHT22;1119;48.288;8.726;2024-03-29T14:07:55;16.60;66.40
2226;DHT22;1119;48.288;8.726;2024-03-29T14:10:42;16.60;63.00
2226;DHT22;1119;48.288;8.726;2024-03-29T14:13:30;16.60;61.50
2226;DHT22;1119;48.288;8.726;2024-03-29T14:16:19;16.60;60.60
2226;DHT22;1119;48.288;8.726;2024-03-29T14:19:07;16.70;59.40
2226;DHT22;1119;48.288;8.726;2024-03-29T14:21:54;16.70;59.80
2226;DHT22;1119;48.288;8.726;2024-03-29T14:24:42;16.60;59.80
2226;DHT22;1119;48.288;8.726;2024-03-29T14:27:30;16.70;59.40
2226;DHT22;1119;48.288;8.726;2024-03-29T14:30:18;16.70;58.70
2226;DHT22;1119;48.288;8.726;2024-03-29T14:33:07;16.70;59.40
2226;DHT22;1119;48.288;8.726;2024-03-29T14:35:54;16.80;59.90
2226;DHT22;1119;48.288;8.726;2024-03-29T14:38:44;16.70;58.80
2226;DHT22;1119;48.288;8.726;2024-03-29T14:41:32;16.60;56.70
2226;DHT22;1119;48.288;8.726;2024-03-29T14:44:21;16.60;58.30
2226;DHT22;1119;48.288;8.726;2024-03-29T14:47:09;16.60;61.00
2226;DHT22;1119;48.288;8.726;2024-03-29T14:49:58;16.70;60.30
2226;DHT22;1119;48.288;8.726;2024-03-29T14:52:46;16.70;60.50
2226;DHT22;1119;48.288;8.726;2024-03-29T14:55:34;16.70;63.20
2226;DHT22;1119;48.288;8.726;2024-03-29T14:58:25;16.70;61.90
2226;DHT22;1119;48.288;8.726;2024-03-29T15:01:13;16.70;62.30
2226;DHT22;1119;48.288;8.726;2024-03-29T15:04:00;16.70;62.90
2226;DHT22;1119;48.288;8.726;2024-03-29T15:06:49;16.60;64.50
2226;DHT22;1119;48.288;8.726;2024-03-29T15:09:37;16.60;64.50
2226;DHT22;1119;48.288;8.726;2024-03-29T15:12:25;16.50;64.50
2226;DHT22;1119;48.288;8.726;2024-03-29T15:15:13;16.40;65.30
2226;DHT22;1119;48.288;8.726;2024-03-29T15:18:01;16.40;65.60
2226;DHT22;1119;48.288;8.726;2024-03-29T15:20:55;16.40;66.40
2226;DHT22;1119;48.288;8.726;2024-03-29T15:23:45;16.30;66.10
2226;DHT22;1119;48.288;8.726;2024-03-29T15:26:32;16.30;68.10
2226;DHT22;1119;48.288;8.726;2024-03-29T15:29:20;16.30;69.10
2226;DHT22;1119;48.288;8.726;2024-03-29T15:32:06;16.30;68.50
2226;DHT22;1119;48.288;8.726;2024-03-29T15:34:54;16.30;68.60
2226;DHT22;1119;48.288;8.726;2024-03-29T15:37:42;16.30;69.60
2226;DHT22;1119;48.288;8.726;2024-03-29T15:40:31;16.20;68.70
2226;DHT22;1119;48.288;8.726;2024-03-29T15:43:19;16.10;69.30
2226;DHT22;1119;48.288;8.726;2024-03-29T15:46:07;15.90;70.70
2226;DHT22;1119;48.288;8.726;2024-03-29T15:48:57;15.80;72.00
2226;DHT22;1119;48.288;8.726;2024-03-29T15:51:45;15.80;72.80
2226;DHT22;1119;48.288;8.726;2024-03-29T15:54:32;15.70;74.30
2226;DHT22;1119;48.288;8.726;2024-03-29T15:57:21;15.70;74.40
2226;DHT22;1119;48.288;8.726;2024-03-29T16:00:10;15.70;75.60
2226;DHT22;1119;48.288;8.726;2024-03-29T16:02:59;15.70;76.00
2226;DHT22;1119;48.288;8.726;2024-03-29T16:05:48;15.60;77.20
2226;DHT22;1119;48.288;8.726;2024-03-29T16:08:37;15.60;77.50
2226;DHT22;1119;48.288;8.726;2024-03-29T16:11:34;15.50;78.10
2226;DHT22;1119;48.288;8.726;2024-03-29T16:14:24;15.40;79.00
2226;DHT22;1119;48.288;8.726;2024-03-29T16:17:14;15.40;80.00
2226;DHT22;1119;48.288;8.726;2024-03-29T16:20:02;15.40;80.20
2226;DHT22;1119;48.288;8.726;2024-03-29T16:22:49;15.40;80.80
2226;DHT22;1119;48.288;8.726;2024-03-29T16:25:36;15.40;81.00
2226;DHT22;1119;48.288;8.726;2024-03-29T16:28:24;15.50;80.60
2226;DHT22;1119;48.288;8.726;2024-03-29T16:31:14;15.40;81.10
2226;DHT22;1119;48.288;8.726;2024-03-29T16:34:00;15.60;80.80
2226;DHT22;1119;48.288;8.726;2024-03-29T16:36:49;15.40;79.60
2226;DHT22;1119;48.288;8.726;2024-03-29T16:39:39;15.50;79.00
2226;DHT22;1119;48.288;8.726;2024-03-29T16:42:26;15.50;78.80
2226;DHT22;1119;48.288;8.726;2024-03-29T16:45:14;15.40;77.90
2226;DHT22;1119;48.288;8.726;2024-03-29T16:48:06;15.50;78.10
2226;DHT22;1119;48.288;8.726;2024-03-29T16:50:54;15.40;78.40
2226;DHT22;1119;48.288;8.726;2024-03-29T16:53:41;15.30;78.40
2226;DHT22;1119;48.288;8.726;2024-03-29T16:56:29;15.30;79.60
2226;DHT22;1119;48.288;8.726;2024-03-29T16:59:16;15.30;79.50
2226;DHT22;1119;48.288;8.726;2024-03-29T17:02:04;15.10;80.20
2226;DHT22;1119;48.288;8.726;2024-03-29T17:04:52;15.00;80.50
2226;DHT22;1119;48.288;8.726;2024-03-29T17:07:40;14.90;79.30
2226;DHT22;1119;48.288;8.726;2024-03-29T17:10:27;14.80;79.70
2226;DHT22;1119;48.288;8.726;2024-03-29T17:13:14;14.90;80.20
2226;DHT22;1119;48.288;8.726;2024-03-29T17:16:03;14.80;80.20
2226;DHT22;1119;48.288;8.726;2024-03-29T17:18:50;14.70;80.20
2226;DHT22;1119;48.288;8.726;2024-03-29T17:21:39;14.60;80.60
2226;DHT22;1119;48.288;8.726;2024-03-29T17:24:26;14.50;80.70
2226;DHT22;1119;48.288;8.726;2024-03-29T17:27:14;14.50;81.30
2226;DHT22;1119;48.288;8.726;2024-03-29T17:30:00;14.40;81.60
2226;DHT22;1119;48.288;8.726;2024-03-29T17:32:48;14.30;81.70
2226;DHT22;1119;48.288;8.726;2024-03-29T17:35:34;14.30;81.90
2226;DHT22;1119;48.288;8.726;2024-03-29T17:38:24;14.20;82.10
2226;DHT22;1119;48.288;8.726;2024-03-29T17:41:10;14.20;82.10
2226;DHT22;1119;48.288;8.726;2024-03-29T17:43:58;14.20;82.40
2226;DHT22;1119;48.288;8.726;2024-03-29T17:46:45;14.20;82.30
2226;DHT22;1119;48.288;8.726;2024-03-29T17:49:34;14.10;82.40
2226;DHT22;1119;48.288;8.726;2024-03-29T17:52:21;14.10;82.20
2226;DHT22;1119;48.288;8.726;2024-03-29T17:55:10;14.10;82.50
2226;DHT22;1119;48.288;8.726;2024-03-29T17:58:00;14.10;82.60
2226;DHT22;1119;48.288;8.726;2024-03-29T18:00:48;14.00;82.90
2226;DHT22;1119;48.288;8.726;2024-03-29T18:03:34;14.00;83.10
2226;DHT22;1119;48.288;8.726;2024-03-29T18:06:22;14.00;83.60
2226;DHT22;1119;48.288;8.726;2024-03-29T18:09:08;13.80;84.10
2226;DHT22;1119;48.288;8.726;2024-03-29T18:11:58;13.80;84.60
2226;DHT22;1119;48.288;8.726;2024-03-29T18:14:44;13.80;85.30
2226;DHT22;1119;48.288;8.726;2024-03-29T18:17:33;13.60;87.20
2226;DHT22;1119;48.288;8.726;2024-03-29T18:20:20;13.40;87.40
2226;DHT22;1119;48.288;8.726;2024-03-29T18:23:08;13.40;87.70
2226;DHT22;1119;48.288;8.726;2024-03-29T18:25:54;13.40;87.80
2226;DHT22;1119;48.288;8.726;2024-03-29T18:28:45;13.50;88.30